Time,TemperatureF,DewpointF,PressureIn,WindDirection,WindDirectionDegrees,WindSpeedMPH,WindSpeedGustMPH,Humidity,HourlyPrecipIn,Conditions,Clouds,dailyrainin,SoftwareType,DateUTC
2013-02-27 00:00:00,39.7,38.4,29.61,ENE,69,9.0,25.0,95,0.00,,,1.09,Wunderground v.1.15,2013-02-27 05:00:00,
2013-02-27 00:01:00,39.8,38.5,29.61,East,95,13.0,15.0,95,0.00,,,0.00,Wunderground v.1.15,2013-02-27 05:01:00,
2013-02-27 00:06:00,39.8,38.5,29.61,ENE,60,13.0,24.0,95,0.00,,,0.00,Wunderground v.1.15,2013-02-27 05:06:00,
2013-02-27 00:11:00,39.8,38.5,29.61,NE,49,7.0,13.0,95,0.00,,,0.00,Wunderground v.1.15,2013-02-27 05:11:00,
2013-02-27 00:16:00,39.7,38.4,29.60,NE,40,4.0,16.0,95,0.00,,,0.00,Wunderground v.1.15,2013-02-27 05:16:00,
2013-02-27 00:21:00,39.8,38.5,29.60,NE,55,12.0,22.0,95,0.00,,,0.00,Wunderground v.1.15,2013-02-27 05:21:00,
2013-02-27 00:26:00,39.9,38.6,29.59,ENE,67,5.0,31.0,95,0.00,,,0.00,Wunderground v.1.15,2013-02-27 05:26:00,
2013-02-27 00:31:00,39.9,38.6,29.59,NE,49,15.0,23.0,95,0.00,,,0.00,Wunderground v.1.15,2013-02-27 05:31:00,
2013-02-27 00:36:00,39.9,38.6,29.59,ENE,69,7.0,23.0,95,0.00,,,0.00,Wunderground v.1.15,2013-02-27 05:36:00,
2013-02-27 00:41:00,39.9,38.6,29.59,ENE,65,6.0,14.0,95,0.00,,,0.00,Wunderground v.1.15,2013-02-27 05:41:00,
2013-02-27 00:46:00,39.8,38.5,29.59,ENE,69,12.0,17.0,95,0.00,,,0.00,Wunderground v.1.15,2013-02-27 05:46:00,
2013-02-27 00:51:00,39.7,38.4,29.58,NE,34,13.0,14.0,95,0.00,,,0.00,Wunderground v.1.15,2013-02-27 05:51:00,
2013-02-27 00:56:00,39.6,38.3,29.58,ENE,67,18.0,19.0,95,0.00,,,0.00,Wunderground v.1.15,2013-02-27 05:56:00,
2013-02-27 01:01:00,39.6,38.3,29.58,ENE,76,14.0,20.0,95,0.00,,,0.00,Wunderground v.1.15,2013-02-27 06:01:00,
2013-02-27 01:06:00,39.5,38.2,29.58,ENE,59,16.0,20.0,95,0.00,,,0.00,Wunderground v.1.15,2013-02-27 06:06:00,
2013-02-27 01:11:00,39.5,38.2,29.58,ENE,73,3.0,13.0,95,0.00,,,0.00,Wunderground v.1.15,2013-02-27 06:11:00,
2013-02-27 01:16:00,39.4,38.1,29.59,NE,53,4.0,20.0,95,0.00,,,0.00,Wunderground v.1.15,2013-02-27 06:16:00,
2013-02-27 01:21:00,39.4,38.1,29.59,SSW,200,2.0,7.0,95,0.00,,,0.00,Wunderground v.1.15,2013-02-27 06:21:00,
2013-02-27 01:26:00,39.5,38.2,29.58,NNE,30,12.0,16.0,95,0.00,,,0.00,Wunderground v.1.15,2013-02-27 06:26:00,
2013-02-27 01:31:00,39.5,38.2,29.58,NNE,28,7.0,7.0,95,0.00,,,0.00,Wunderground v.1.15,2013-02-27 06:31:00,
2013-02-27 01:36:00,39.5,38.2,29.58,ENE,61,6.0,19.0,95,0.00,,,0.00,Wunderground v.1.15,2013-02-27 06:36:00,
2013-02-27 01:41:00,39.5,38.2,29.58,ENE,76,6.0,9.0,95,0.00,,,0.00,Wunderground v.1.15,2013-02-27 06:41:00,
2013-02-27 01:46:00,39.4,38.1,29.58,NE,40,1.0,12.0,95,0.00,,,0.00,Wunderground v.1.15,2013-02-27 06:46:00,
2013-02-27 01:51:00,39.4,38.1,29.58,NE,53,2.0,4.0,95,0.00,,,0.00,Wunderground v.1.15,2013-02-27 06:51:00,
2013-02-27 01:56:00,39.5,38.2,29.58,SSE,153,2.0,9.0,95,0.00,,,0.01,Wunderground v.1.15,2013-02-27 06:56:00,
2013-02-27 02:01:00,39.5,38.2,29.58,SSE,153,4.0,4.0,95,0.00,,,0.01,Wunderground v.1.15,2013-02-27 07:01:00,
2013-02-27 02:06:00,39.4,38.1,29.57,NE,43,7.0,16.0,95,0.00,,,0.01,Wunderground v.1.15,2013-02-27 07:06:00,
2013-02-27 02:11:00,39.4,38.1,29.56,ENE,61,3.0,4.0,95,0.00,,,0.01,Wunderground v.1.15,2013-02-27 07:11:00,
2013-02-27 02:16:00,39.3,38.0,29.56,NE,40,2.0,21.0,95,0.00,,,0.01,Wunderground v.1.15,2013-02-27 07:16:00,
2013-02-27 02:21:00,39.3,38.0,29.55,NE,53,2.0,4.0,95,0.00,,,0.01,Wunderground v.1.15,2013-02-27 07:21:00,
2013-02-27 02:26:00,39.3,38.0,29.55,ENE,60,2.0,13.0,95,0.00,,,0.01,Wunderground v.1.15,2013-02-27 07:26:00,
2013-02-27 02:31:00,39.3,38.0,29.55,North,360,3.0,4.0,95,0.00,,,0.01,Wunderground v.1.15,2013-02-27 07:31:00,
2013-02-27 02:36:00,39.3,38.0,29.55,NNE,15,1.0,13.0,95,0.00,,,0.01,Wunderground v.1.15,2013-02-27 07:36:00,
2013-02-27 02:41:00,39.3,38.3,29.55,NNW,345,2.0,9.0,96,0.00,,,0.01,Wunderground v.1.15,2013-02-27 07:41:00,
2013-02-27 02:46:00,39.3,38.3,29.54,North,355,1.0,9.0,96,0.00,,,0.01,Wunderground v.1.15,2013-02-27 07:46:00,
2013-02-27 02:51:00,39.3,38.0,29.54,North,11,5.0,6.0,95,0.00,,,0.01,Wunderground v.1.15,2013-02-27 07:51:00,
2013-02-27 02:56:00,39.3,38.0,29.54,NNW,344,5.0,13.0,95,0.00,,,0.01,Wunderground v.1.15,2013-02-27 07:56:00,
2013-02-27 03:01:00,39.3,38.3,29.54,North,5,2.0,4.0,96,0.00,,,0.01,Wunderground v.1.15,2013-02-27 08:01:00,
2013-02-27 03:06:00,39.4,38.4,29.54,NW,323,4.0,12.0,96,0.00,,,0.01,Wunderground v.1.15,2013-02-27 08:06:00,
2013-02-27 03:11:00,39.4,38.4,29.54,NW,323,3.0,4.0,96,0.00,,,0.01,Wunderground v.1.15,2013-02-27 08:11:00,
2013-02-27 03:16:00,39.4,38.4,29.54,NW,318,3.0,7.0,96,0.00,,,0.01,Wunderground v.1.15,2013-02-27 08:16:00,
2013-02-27 03:21:00,39.4,38.4,29.54,NW,318,1.0,3.0,96,0.00,,,0.01,Wunderground v.1.15,2013-02-27 08:21:00,
2013-02-27 03:26:00,39.5,38.5,29.54,NW,313,0.0,6.0,96,0.00,,,0.01,Wunderground v.1.15,2013-02-27 08:26:00,
2013-02-27 03:31:00,39.6,38.6,29.54,NW,313,0.0,1.0,96,0.00,,,0.01,Wunderground v.1.15,2013-02-27 08:31:00,
2013-02-27 03:36:00,39.6,38.6,29.55,NW,313,0.0,1.0,96,0.00,,,0.01,Wunderground v.1.15,2013-02-27 08:36:00,
2013-02-27 03:41:00,39.6,38.6,29.55,NW,313,0.0,1.0,96,0.00,,,0.01,Wunderground v.1.15,2013-02-27 08:41:00,
2013-02-27 03:46:00,39.5,38.5,29.55,NW,313,0.0,1.0,96,0.00,,,0.01,Wunderground v.1.15,2013-02-27 08:46:00,
2013-02-27 03:51:00,39.5,38.5,29.56,NW,313,0.0,0.0,96,0.00,,,0.02,Wunderground v.1.15,2013-02-27 08:51:00,
2013-02-27 03:56:00,39.4,38.4,29.56,NW,313,0.0,1.0,96,0.00,,,0.02,Wunderground v.1.15,2013-02-27 08:56:00,
2013-02-27 04:01:00,39.4,38.4,29.56,NW,313,0.0,0.0,96,0.00,,,0.02,Wunderground v.1.15,2013-02-27 09:01:00,
2013-02-27 04:06:00,39.4,38.4,29.56,NW,313,0.0,0.0,96,0.00,,,0.02,Wunderground v.1.15,2013-02-27 09:06:00,
2013-02-27 04:11:00,39.4,38.4,29.56,NW,313,3.0,3.0,96,0.00,,,0.02,Wunderground v.1.15,2013-02-27 09:11:00,
2013-02-27 04:16:00,39.3,38.3,29.56,NW,313,1.0,3.0,96,0.00,,,0.03,Wunderground v.1.15,2013-02-27 09:16:00,
2013-02-27 04:21:00,39.1,38.1,29.56,NW,313,0.0,0.0,96,0.00,,,0.03,Wunderground v.1.15,2013-02-27 09:21:00,
2013-02-27 04:26:00,38.9,37.9,29.56,NW,313,0.0,2.0,96,0.00,,,0.03,Wunderground v.1.15,2013-02-27 09:26:00,
2013-02-27 04:31:00,38.7,37.7,29.56,NW,313,0.0,2.0,96,0.00,,,0.03,Wunderground v.1.15,2013-02-27 09:31:00,
2013-02-27 04:36:00,38.6,37.6,29.56,NW,313,1.0,4.0,96,0.00,,,0.03,Wunderground v.1.15,2013-02-27 09:36:00,
2013-02-27 04:41:00,38.4,37.4,29.56,NW,313,0.0,1.0,96,0.00,,,0.03,Wunderground v.1.15,2013-02-27 09:41:00,
2013-02-27 04:46:00,38.3,37.3,29.56,NW,313,0.0,1.0,96,0.00,,,0.03,Wunderground v.1.15,2013-02-27 09:46:00,
2013-02-27 04:51:00,38.2,37.2,29.56,NW,313,0.0,0.0,96,0.00,,,0.03,Wunderground v.1.15,2013-02-27 09:51:00,
2013-02-27 04:56:00,38.1,37.1,29.56,NW,313,0.0,0.0,96,0.00,,,0.03,Wunderground v.1.15,2013-02-27 09:56:00,
2013-02-27 05:01:00,38.0,37.0,29.55,NW,313,0.0,0.0,96,0.00,,,0.03,Wunderground v.1.15,2013-02-27 10:01:00,
2013-02-27 05:06:00,37.9,36.9,29.56,NW,313,0.0,2.0,96,0.00,,,0.04,Wunderground v.1.15,2013-02-27 10:06:00,
2013-02-27 05:11:00,37.8,36.8,29.55,NW,313,0.0,4.0,96,0.00,,,0.04,Wunderground v.1.15,2013-02-27 10:11:00,
2013-02-27 05:16:00,37.7,36.7,29.55,NW,313,0.0,4.0,96,0.00,,,0.04,Wunderground v.1.15,2013-02-27 10:16:00,
2013-02-27 05:21:00,37.6,36.6,29.55,NW,313,0.0,2.0,96,0.00,,,0.04,Wunderground v.1.15,2013-02-27 10:21:00,
2013-02-27 05:26:00,37.5,36.5,29.56,NW,313,0.0,2.0,96,0.00,,,0.04,Wunderground v.1.15,2013-02-27 10:26:00,
2013-02-27 05:31:00,37.3,36.3,29.56,NW,313,1.0,1.0,96,0.00,,,0.04,Wunderground v.1.15,2013-02-27 10:31:00,
2013-02-27 05:37:00,37.2,36.2,29.56,NW,313,0.0,4.0,96,0.00,,,0.04,Wunderground v.1.15,2013-02-27 10:37:00,
2013-02-27 05:42:00,37.0,36.0,29.56,NW,313,0.0,6.0,96,0.00,,,0.04,Wunderground v.1.15,2013-02-27 10:42:00,
2013-02-27 05:47:00,36.8,35.8,29.57,NW,313,0.0,6.0,96,0.00,,,0.04,Wunderground v.1.15,2013-02-27 10:47:00,
2013-02-27 05:52:00,36.7,35.7,29.57,NW,313,0.0,2.0,96,0.00,,,0.04,Wunderground v.1.15,2013-02-27 10:52:00,
2013-02-27 05:57:00,36.5,35.5,29.57,NW,313,0.0,4.0,96,0.00,,,0.04,Wunderground v.1.15,2013-02-27 10:57:00,
2013-02-27 06:02:00,36.3,35.3,29.57,NW,313,0.0,0.0,96,0.00,,,0.04,Wunderground v.1.15,2013-02-27 11:02:00,
2013-02-27 06:07:00,36.2,35.2,29.57,NW,313,0.0,0.0,96,0.00,,,0.04,Wunderground v.1.15,2013-02-27 11:07:00,
2013-02-27 06:12:00,36.1,35.1,29.57,NW,313,0.0,0.0,96,0.00,,,0.04,Wunderground v.1.15,2013-02-27 11:12:00,
2013-02-27 06:17:00,36.1,35.1,29.57,NW,313,3.0,3.0,96,0.00,,,0.04,Wunderground v.1.15,2013-02-27 11:17:00,
2013-02-27 06:22:00,36.0,35.0,29.58,NW,313,0.0,4.0,96,0.00,,,0.04,Wunderground v.1.15,2013-02-27 11:22:00,
2013-02-27 06:27:00,35.9,34.9,29.58,NW,313,3.0,5.0,96,0.00,,,0.04,Wunderground v.1.15,2013-02-27 11:27:00,
2013-02-27 06:32:00,35.8,34.8,29.58,NW,313,0.0,1.0,96,0.00,,,0.04,Wunderground v.1.15,2013-02-27 11:32:00,
2013-02-27 06:37:00,35.7,34.7,29.58,NW,313,2.0,6.0,96,0.00,,,0.04,Wunderground v.1.15,2013-02-27 11:37:00,
2013-02-27 06:42:00,35.6,34.6,29.57,NW,313,0.0,2.0,96,0.00,,,0.04,Wunderground v.1.15,2013-02-27 11:42:00,
2013-02-27 06:47:00,35.5,34.5,29.57,NW,309,3.0,7.0,96,0.00,,,0.04,Wunderground v.1.15,2013-02-27 11:47:00,
2013-02-27 06:52:00,35.5,34.5,29.57,NW,309,3.0,4.0,96,0.00,,,0.04,Wunderground v.1.15,2013-02-27 11:52:00,
2013-02-27 06:57:00,35.4,34.4,29.57,NW,309,2.0,7.0,96,0.00,,,0.04,Wunderground v.1.15,2013-02-27 11:57:00,
2013-02-27 07:02:00,35.3,34.5,29.58,NW,308,0.0,3.0,97,0.00,,,0.04,Wunderground v.1.15,2013-02-27 12:02:00,
2013-02-27 07:07:00,35.3,34.5,29.58,NW,307,2.0,5.0,97,0.00,,,0.04,Wunderground v.1.15,2013-02-27 12:07:00,
2013-02-27 07:12:00,35.3,34.5,29.59,NW,307,0.0,5.0,97,0.00,,,0.04,Wunderground v.1.15,2013-02-27 12:12:00,
2013-02-27 07:17:00,35.3,34.5,29.59,NW,306,0.0,7.0,97,0.00,,,0.04,Wunderground v.1.15,2013-02-27 12:17:00,
2013-02-27 07:22:00,35.4,34.6,29.60,NW,306,0.0,4.0,97,0.00,,,0.04,Wunderground v.1.15,2013-02-27 12:22:00,
2013-02-27 07:27:00,35.4,34.6,29.60,NW,306,0.0,5.0,97,0.00,,,0.04,Wunderground v.1.15,2013-02-27 12:27:00,
2013-02-27 07:32:00,35.5,34.7,29.60,NW,306,1.0,5.0,97,0.00,,,0.04,Wunderground v.1.15,2013-02-27 12:32:00,
2013-02-27 07:37:00,35.5,34.7,29.60,NW,306,1.0,7.0,97,0.00,,,0.04,Wunderground v.1.15,2013-02-27 12:37:00,
2013-02-27 07:42:00,35.5,34.7,29.60,NW,306,0.0,2.0,97,0.00,,,0.04,Wunderground v.1.15,2013-02-27 12:42:00,
2013-02-27 07:47:00,35.5,34.7,29.60,NW,304,3.0,11.0,97,0.00,,,0.04,Wunderground v.1.15,2013-02-27 12:47:00,
2013-02-27 07:52:00,35.6,34.8,29.61,NW,304,5.0,5.0,97,0.00,,,0.04,Wunderground v.1.15,2013-02-27 12:52:00,
2013-02-27 07:57:00,35.7,34.9,29.61,NW,304,1.0,6.0,97,0.00,,,0.04,Wunderground v.1.15,2013-02-27 12:57:00,
2013-02-27 08:02:00,35.7,34.9,29.61,NW,304,3.0,4.0,97,0.00,,,0.04,Wunderground v.1.15,2013-02-27 13:02:00,
2013-02-27 08:07:00,35.9,35.1,29.61,NW,304,0.0,5.0,97,0.00,,,0.04,Wunderground v.1.15,2013-02-27 13:07:00,
2013-02-27 08:12:00,36.0,35.2,29.61,NW,304,4.0,6.0,97,0.00,,,0.04,Wunderground v.1.15,2013-02-27 13:12:00,
2013-02-27 08:17:00,36.1,35.3,29.62,NW,304,0.0,6.0,97,0.00,,,0.04,Wunderground v.1.15,2013-02-27 13:17:00,
2013-02-27 08:22:00,36.2,35.4,29.61,NW,304,4.0,6.0,97,0.00,,,0.04,Wunderground v.1.15,2013-02-27 13:22:00,
2013-02-27 08:27:00,36.4,35.6,29.61,NW,304,2.0,6.0,97,0.00,,,0.04,Wunderground v.1.15,2013-02-27 13:27:00,
2013-02-27 08:32:00,36.6,35.8,29.62,NW,306,0.0,3.0,97,0.00,,,0.04,Wunderground v.1.15,2013-02-27 13:32:00,
2013-02-27 08:37:00,36.7,35.9,29.63,WNW,300,4.0,10.0,97,0.00,,,0.04,Wunderground v.1.15,2013-02-27 13:37:00,
2013-02-27 08:42:00,36.9,36.1,29.62,WNW,300,3.0,10.0,97,0.00,,,0.04,Wunderground v.1.15,2013-02-27 13:42:00,
2013-02-27 08:47:00,37.2,36.4,29.62,WNW,300,1.0,10.0,97,0.00,,,0.04,Wunderground v.1.15,2013-02-27 13:47:00,
2013-02-27 08:52:00,37.5,36.7,29.62,WNW,298,2.0,7.0,97,0.00,,,0.04,Wunderground v.1.15,2013-02-27 13:52:00,
2013-02-27 08:57:00,38.4,37.9,29.62,WNW,300,5.0,12.0,98,0.00,,,0.04,Wunderground v.1.15,2013-02-27 13:57:00,
2013-02-27 09:02:00,39.3,38.8,29.62,WNW,289,2.0,9.0,98,0.00,,,0.04,Wunderground v.1.15,2013-02-27 14:02:00,
2013-02-27 09:07:00,39.8,39.3,29.63,WNW,290,0.0,9.0,98,0.00,,,0.04,Wunderground v.1.15,2013-02-27 14:07:00,
2013-02-27 09:12:00,40.2,39.7,29.62,WNW,298,3.0,7.0,98,0.00,,,0.04,Wunderground v.1.15,2013-02-27 14:12:00,
2013-02-27 09:17:00,41.0,40.5,29.62,WNW,296,2.0,12.0,98,0.00,,,0.04,Wunderground v.1.15,2013-02-27 14:17:00,
2013-02-27 09:22:00,41.6,41.1,29.63,WNW,292,4.0,10.0,98,0.00,,,0.04,Wunderground v.1.15,2013-02-27 14:22:00,
2013-02-27 09:27:00,42.4,41.9,29.63,WNW,303,2.0,10.0,98,0.00,,,0.04,Wunderground v.1.15,2013-02-27 14:27:00,
2013-02-27 09:32:00,42.9,42.4,29.63,WNW,302,4.0,9.0,98,0.00,,,0.04,Wunderground v.1.15,2013-02-27 14:32:00,
2013-02-27 09:37:00,43.4,42.9,29.63,WNW,288,2.0,11.0,98,0.00,,,0.04,Wunderground v.1.15,2013-02-27 14:37:00,
2013-02-27 09:42:00,44.4,43.9,29.63,WNW,289,1.0,9.0,98,0.00,,,0.04,Wunderground v.1.15,2013-02-27 14:42:00,
2013-02-27 09:47:00,45.2,44.7,29.63,WNW,289,0.0,9.0,98,0.00,,,0.04,Wunderground v.1.15,2013-02-27 14:47:00,
2013-02-27 09:52:00,45.5,45.0,29.63,WNW,291,4.0,6.0,98,0.00,,,0.04,Wunderground v.1.15,2013-02-27 14:52:00,
2013-02-27 09:57:00,45.9,45.4,29.63,WNW,291,0.0,10.0,98,0.00,,,0.04,Wunderground v.1.15,2013-02-27 14:57:00,
2013-02-27 10:02:00,45.9,45.1,29.63,WNW,291,6.0,10.0,97,0.00,,,0.04,Wunderground v.1.15,2013-02-27 15:02:00,
2013-02-27 10:07:00,46.2,44.8,29.64,WNW,290,4.0,10.0,95,0.00,,,0.04,Wunderground v.1.15,2013-02-27 15:07:00,
2013-02-27 10:12:00,46.4,43.9,29.64,WNW,289,3.0,5.0,91,0.00,,,0.04,Wunderground v.1.15,2013-02-27 15:12:00,
2013-02-27 10:17:00,46.8,44.3,29.63,WNW,289,2.0,9.0,91,0.00,,,0.04,Wunderground v.1.15,2013-02-27 15:17:00,
2013-02-27 10:22:00,47.3,44.5,29.63,WNW,290,5.0,5.0,90,0.00,,,0.04,Wunderground v.1.15,2013-02-27 15:22:00,
2013-02-27 10:27:00,47.8,44.7,29.63,WNW,291,2.0,6.0,89,0.00,,,0.04,Wunderground v.1.15,2013-02-27 15:27:00,
2013-02-27 10:32:00,48.3,44.3,29.63,WNW,291,1.0,4.0,86,0.00,,,0.04,Wunderground v.1.15,2013-02-27 15:32:00,
2013-02-27 10:37:00,49.0,45.0,29.63,WNW,291,1.0,6.0,86,0.00,,,0.04,Wunderground v.1.15,2013-02-27 15:37:00,
2013-02-27 10:42:00,49.6,45.0,29.63,WNW,292,3.0,6.0,84,0.00,,,0.04,Wunderground v.1.15,2013-02-27 15:42:00,
2013-02-27 10:47:00,50.0,45.4,29.63,WNW,290,3.0,10.0,84,0.00,,,0.04,Wunderground v.1.15,2013-02-27 15:47:00,
2013-02-27 10:52:00,50.4,45.1,29.63,WNW,292,2.0,9.0,82,0.00,,,0.04,Wunderground v.1.15,2013-02-27 15:52:00,
2013-02-27 10:57:00,50.6,45.3,29.63,WSW,247,2.0,13.0,82,0.00,,,0.04,Wunderground v.1.15,2013-02-27 15:57:00,
2013-02-27 11:02:00,50.8,44.9,29.63,West,273,0.0,10.0,80,0.00,,,0.04,Wunderground v.1.15,2013-02-27 16:02:00,
2013-02-27 11:07:00,50.4,44.1,29.63,WNW,286,6.0,11.0,79,0.00,,,0.04,Wunderground v.1.15,2013-02-27 16:07:00,
2013-02-27 11:13:00,50.3,44.4,29.63,NW,305,2.0,11.0,80,0.00,,,0.04,Wunderground v.1.15,2013-02-27 16:13:00,
2013-02-27 11:17:00,50.4,44.1,29.63,WNW,285,13.0,13.0,79,0.00,,,0.04,Wunderground v.1.15,2013-02-27 16:17:00,
2013-02-27 11:23:00,50.7,44.8,29.63,West,272,2.0,11.0,80,0.00,,,0.04,Wunderground v.1.15,2013-02-27 16:23:00,
2013-02-27 11:27:00,51.1,45.5,29.63,WNW,298,5.0,12.0,81,0.00,,,0.04,Wunderground v.1.15,2013-02-27 16:27:00,
2013-02-27 11:32:00,51.1,44.5,29.63,NW,306,2.0,9.0,78,0.00,,,0.04,Wunderground v.1.15,2013-02-27 16:32:00,
2013-02-27 11:38:00,50.3,43.0,29.63,WNW,283,5.0,15.0,76,0.00,,,0.04,Wunderground v.1.15,2013-02-27 16:38:00,
2013-02-27 11:42:00,49.9,43.3,29.63,West,273,5.0,6.0,78,0.00,,,0.04,Wunderground v.1.15,2013-02-27 16:42:00,
2013-02-27 11:47:00,50.1,43.8,29.63,WNW,292,2.0,12.0,79,0.00,,,0.04,Wunderground v.1.15,2013-02-27 16:47:00,
2013-02-27 11:52:00,50.6,44.0,29.62,WNW,289,5.0,7.0,78,0.00,,,0.04,Wunderground v.1.15,2013-02-27 16:52:00,
2013-02-27 11:57:00,51.2,44.6,29.62,SW,225,0.0,11.0,78,0.00,,,0.04,Wunderground v.1.15,2013-02-27 16:57:00,
2013-02-27 12:02:00,51.6,44.6,29.62,West,265,3.0,13.0,77,0.00,,,0.04,Wunderground v.1.15,2013-02-27 17:02:00,
2013-02-27 12:07:00,52.3,46.0,29.62,WNW,288,8.0,13.0,79,0.00,,,0.04,Wunderground v.1.15,2013-02-27 17:07:00,
2013-02-27 12:12:00,53.0,46.3,29.62,West,279,5.0,10.0,78,0.00,,,0.04,Wunderground v.1.15,2013-02-27 17:12:00,
2013-02-27 12:17:00,53.6,45.5,29.61,WNW,296,3.0,11.0,74,0.00,,,0.04,Wunderground v.1.15,2013-02-27 17:17:00,
2013-02-27 12:22:00,54.2,46.4,29.61,WNW,301,4.0,11.0,75,0.00,,,0.04,Wunderground v.1.15,2013-02-27 17:22:00,
2013-02-27 12:27:00,54.6,46.8,29.61,WSW,249,1.0,11.0,75,0.00,,,0.04,Wunderground v.1.15,2013-02-27 17:27:00,
2013-02-27 12:32:00,54.5,46.0,29.61,WNW,282,11.0,14.0,73,0.00,,,0.04,Wunderground v.1.15,2013-02-27 17:32:00,
2013-02-27 12:37:00,54.2,44.6,29.61,SW,225,3.0,14.0,70,0.00,,,0.04,Wunderground v.1.15,2013-02-27 17:37:00,
2013-02-27 12:42:00,54.3,45.5,29.61,West,261,1.0,12.0,72,0.00,,,0.04,Wunderground v.1.15,2013-02-27 17:42:00,
2013-02-27 12:47:00,54.9,46.8,29.61,WNW,292,7.0,12.0,74,0.00,,,0.04,Wunderground v.1.15,2013-02-27 17:47:00,
2013-02-27 12:52:00,55.2,44.8,29.60,WNW,290,3.0,10.0,68,0.00,,,0.04,Wunderground v.1.15,2013-02-27 17:52:00,
2013-02-27 12:57:00,54.5,44.5,29.61,West,270,9.0,15.0,69,0.00,,,0.04,Wunderground v.1.15,2013-02-27 17:57:00,
2013-02-27 13:02:00,53.4,43.1,29.61,WNW,299,2.0,10.0,68,0.00,,,0.04,Wunderground v.1.15,2013-02-27 18:02:00,
2013-02-27 13:07:00,52.2,42.3,29.61,WNW,303,2.0,16.0,69,0.00,,,0.04,Wunderground v.1.15,2013-02-27 18:07:00,
2013-02-27 13:12:00,51.5,42.0,29.61,WNW,283,1.0,11.0,70,0.00,,,0.04,Wunderground v.1.15,2013-02-27 18:12:00,
2013-02-27 13:17:00,51.4,41.9,29.60,NW,306,9.0,15.0,70,0.00,,,0.04,Wunderground v.1.15,2013-02-27 18:17:00,
2013-02-27 13:22:00,51.8,41.9,29.60,NW,307,4.0,12.0,69,0.00,,,0.04,Wunderground v.1.15,2013-02-27 18:22:00,
2013-02-27 13:27:00,52.5,42.6,29.60,WNW,288,1.0,12.0,69,0.00,,,0.04,Wunderground v.1.15,2013-02-27 18:27:00,
2013-02-27 13:32:00,52.8,42.5,29.61,WNW,286,6.0,10.0,68,0.00,,,0.04,Wunderground v.1.15,2013-02-27 18:32:00,
2013-02-27 13:37:00,52.4,41.0,29.61,WNW,303,2.0,11.0,65,0.00,,,0.04,Wunderground v.1.15,2013-02-27 18:37:00,
2013-02-27 13:43:00,51.9,40.5,29.61,West,271,1.0,12.0,65,0.00,,,0.04,Wunderground v.1.15,2013-02-27 18:43:00,
2013-02-27 13:48:00,52.2,41.2,29.61,West,265,5.0,16.0,66,0.00,,,0.04,Wunderground v.1.15,2013-02-27 18:48:00,
2013-02-27 13:52:00,52.6,41.2,29.61,West,278,5.0,16.0,65,0.00,,,0.04,Wunderground v.1.15,2013-02-27 18:52:00,
2013-02-27 13:57:00,52.3,40.9,29.61,West,270,7.0,18.0,65,0.00,,,0.04,Wunderground v.1.15,2013-02-27 18:57:00,
2013-02-27 14:02:00,52.8,41.4,29.61,WNW,300,2.0,10.0,65,0.00,,,0.04,Wunderground v.1.15,2013-02-27 19:02:00,
2013-02-27 14:07:00,53.1,40.8,29.62,WNW,294,4.0,17.0,63,0.00,,,0.04,Wunderground v.1.15,2013-02-27 19:07:00,
2013-02-27 14:12:00,52.6,40.8,29.62,WNW,290,3.0,12.0,64,0.00,,,0.04,Wunderground v.1.15,2013-02-27 19:12:00,
2013-02-27 14:17:00,52.1,40.3,29.63,West,271,2.0,12.0,64,0.00,,,0.04,Wunderground v.1.15,2013-02-27 19:17:00,
2013-02-27 14:22:00,51.7,39.9,29.63,WNW,289,9.0,12.0,64,0.00,,,0.04,Wunderground v.1.15,2013-02-27 19:22:00,
2013-02-27 14:27:00,51.5,39.7,29.63,West,277,0.0,15.0,64,0.00,,,0.04,Wunderground v.1.15,2013-02-27 19:27:00,
2013-02-27 14:32:00,50.9,39.5,29.63,West,275,5.0,9.0,65,0.00,,,0.04,Wunderground v.1.15,2013-02-27 19:32:00,
2013-02-27 14:37:00,51.0,40.0,29.63,WNW,292,12.0,12.0,66,0.00,,,0.04,Wunderground v.1.15,2013-02-27 19:37:00,
2013-02-27 14:42:00,52.1,40.3,29.63,WNW,293,1.0,13.0,64,0.00,,,0.04,Wunderground v.1.15,2013-02-27 19:42:00,
2013-02-27 14:47:00,53.5,42.0,29.63,WNW,298,3.0,14.0,65,0.00,,,0.04,Wunderground v.1.15,2013-02-27 19:47:00,
2013-02-27 14:52:00,54.1,40.9,29.63,WNW,288,4.0,8.0,61,0.00,,,0.04,Wunderground v.1.15,2013-02-27 19:52:00,
2013-02-27 14:57:00,54.0,41.3,29.63,NW,306,5.0,12.0,62,0.00,,,0.04,Wunderground v.1.15,2013-02-27 19:57:00,
2013-02-27 15:03:00,53.9,39.9,29.63,WNW,290,2.0,15.0,59,0.00,,,0.04,Wunderground v.1.15,2013-02-27 20:03:00,
2013-02-27 15:08:00,53.7,40.1,29.63,West,276,5.0,15.0,60,0.00,,,0.04,Wunderground v.1.15,2013-02-27 20:08:00,
2013-02-27 15:13:00,53.7,41.0,29.63,West,273,6.0,10.0,62,0.00,,,0.04,Wunderground v.1.15,2013-02-27 20:13:00,
2013-02-27 15:18:00,52.9,39.4,29.64,SW,235,3.0,16.0,60,0.00,,,0.04,Wunderground v.1.15,2013-02-27 20:18:00,
2013-02-27 15:23:00,51.9,39.3,29.64,West,281,2.0,13.0,62,0.00,,,0.04,Wunderground v.1.15,2013-02-27 20:23:00,
2013-02-27 15:28:00,51.2,38.6,29.63,WNW,293,14.0,16.0,62,0.00,,,0.04,Wunderground v.1.15,2013-02-27 20:28:00,
2013-02-27 15:33:00,51.0,38.4,29.63,West,263,2.0,7.0,62,0.00,,,0.04,Wunderground v.1.15,2013-02-27 20:33:00,
2013-02-27 15:38:00,51.3,39.1,29.63,NW,308,1.0,14.0,63,0.00,,,0.04,Wunderground v.1.15,2013-02-27 20:38:00,
2013-02-27 15:43:00,51.6,39.0,29.63,West,281,1.0,11.0,62,0.00,,,0.04,Wunderground v.1.15,2013-02-27 20:43:00,
2013-02-27 15:48:00,51.7,39.5,29.63,WNW,285,7.0,11.0,63,0.00,,,0.04,Wunderground v.1.15,2013-02-27 20:48:00,
2013-02-27 15:53:00,51.7,39.5,29.64,West,275,3.0,13.0,63,0.00,,,0.04,Wunderground v.1.15,2013-02-27 20:53:00,
2013-02-27 15:58:00,51.9,39.7,29.63,West,279,2.0,13.0,63,0.00,,,0.04,Wunderground v.1.15,2013-02-27 20:58:00,
2013-02-27 16:03:00,51.7,39.1,29.64,WNW,300,1.0,6.0,62,0.00,,,0.04,Wunderground v.1.15,2013-02-27 21:03:00,
2013-02-27 16:08:00,50.8,37.8,29.64,WNW,300,3.0,14.0,61,0.00,,,0.04,Wunderground v.1.15,2013-02-27 21:08:00,
2013-02-27 16:13:00,49.9,37.8,29.64,WSW,245,5.0,18.0,63,0.00,,,0.04,Wunderground v.1.15,2013-02-27 21:13:00,
2013-02-27 16:18:00,49.2,37.9,29.65,WNW,285,5.0,18.0,65,0.00,,,0.04,Wunderground v.1.15,2013-02-27 21:18:00,
2013-02-27 16:23:00,48.8,37.2,29.65,WNW,290,6.0,6.0,64,0.00,,,0.04,Wunderground v.1.15,2013-02-27 21:23:00,
2013-02-27 16:28:00,48.5,38.0,29.65,WNW,285,0.0,10.0,67,0.00,,,0.04,Wunderground v.1.15,2013-02-27 21:28:00,
2013-02-27 16:33:00,48.2,37.4,29.64,WNW,300,2.0,11.0,66,0.00,,,0.04,Wunderground v.1.15,2013-02-27 21:33:00,
2013-02-27 16:38:00,47.9,37.5,29.64,WNW,290,2.0,11.0,67,0.00,,,0.04,Wunderground v.1.15,2013-02-27 21:38:00,
2013-02-27 16:43:00,47.6,37.2,29.64,WNW,303,4.0,5.0,67,0.00,,,0.04,Wunderground v.1.15,2013-02-27 21:43:00,
2013-02-27 16:48:00,47.4,37.0,29.64,WNW,288,3.0,12.0,67,0.00,,,0.04,Wunderground v.1.15,2013-02-27 21:48:00,
2013-02-27 16:53:00,47.1,37.1,29.65,WNW,294,5.0,9.0,68,0.00,,,0.04,Wunderground v.1.15,2013-02-27 21:53:00,
2013-02-27 16:58:00,46.9,36.9,29.65,WNW,296,6.0,12.0,68,0.00,,,0.04,Wunderground v.1.15,2013-02-27 21:58:00,
2013-02-27 17:03:00,46.7,36.7,29.65,WNW,297,3.0,5.0,68,0.00,,,0.04,Wunderground v.1.15,2013-02-27 22:03:00,
2013-02-27 17:08:00,46.6,36.6,29.66,WNW,289,0.0,10.0,68,0.00,,,0.04,Wunderground v.1.15,2013-02-27 22:08:00,
2013-02-27 17:13:00,46.5,36.5,29.66,West,272,3.0,10.0,68,0.00,,,0.04,Wunderground v.1.15,2013-02-27 22:13:00,
2013-02-27 17:18:00,46.4,36.4,29.66,WNW,282,4.0,12.0,68,0.00,,,0.04,Wunderground v.1.15,2013-02-27 22:18:00,
2013-02-27 17:23:00,46.3,36.3,29.66,WNW,297,3.0,7.0,68,0.00,,,0.04,Wunderground v.1.15,2013-02-27 22:23:00,
2013-02-27 17:28:00,46.2,36.6,29.67,West,278,1.0,10.0,69,0.00,,,0.04,Wunderground v.1.15,2013-02-27 22:28:00,
2013-02-27 17:33:00,46.1,36.5,29.67,WNW,286,2.0,5.0,69,0.00,,,0.04,Wunderground v.1.15,2013-02-27 22:33:00,
2013-02-27 17:38:00,46.0,36.8,29.67,WNW,286,0.0,6.0,70,0.00,,,0.04,Wunderground v.1.15,2013-02-27 22:38:00,
2013-02-27 17:43:00,45.9,36.7,29.67,WNW,286,0.0,1.0,70,0.00,,,0.04,Wunderground v.1.15,2013-02-27 22:43:00,
2013-02-27 17:48:00,45.6,36.4,29.67,WNW,285,0.0,7.0,70,0.00,,,0.04,Wunderground v.1.15,2013-02-27 22:48:00,
2013-02-27 17:53:00,45.5,36.3,29.67,WNW,286,0.0,7.0,70,0.00,,,0.04,Wunderground v.1.15,2013-02-27 22:53:00,
2013-02-27 17:58:00,45.4,36.2,29.67,WNW,288,2.0,10.0,70,0.00,,,0.04,Wunderground v.1.15,2013-02-27 22:58:00,
2013-02-27 18:03:00,45.3,36.4,29.67,WNW,288,0.0,4.0,71,0.00,,,0.04,Wunderground v.1.15,2013-02-27 23:03:00,
2013-02-27 18:08:00,45.1,35.9,29.67,WNW,288,3.0,7.0,70,0.00,,,0.04,Wunderground v.1.15,2013-02-27 23:08:00,
2013-02-27 18:13:00,45.0,35.8,29.67,WNW,285,0.0,8.0,70,0.00,,,0.04,Wunderground v.1.15,2013-02-27 23:13:00,
2013-02-27 18:18:00,45.0,35.8,29.67,WNW,285,2.0,8.0,70,0.00,,,0.04,Wunderground v.1.15,2013-02-27 23:18:00,
2013-02-27 18:23:00,44.9,36.4,29.67,WNW,286,0.0,5.0,72,0.00,,,0.04,Wunderground v.1.15,2013-02-27 23:23:00,
2013-02-27 18:28:00,44.8,36.0,29.68,WNW,286,9.0,9.0,71,0.00,,,0.04,Wunderground v.1.15,2013-02-27 23:28:00,
2013-02-27 18:33:00,44.6,35.8,29.68,WNW,286,1.0,5.0,71,0.00,,,0.04,Wunderground v.1.15,2013-02-27 23:33:00,
2013-02-27 18:38:00,44.5,36.4,29.68,WNW,286,0.0,5.0,73,0.00,,,0.04,Wunderground v.1.15,2013-02-27 23:38:00,
2013-02-27 18:43:00,44.4,36.6,29.68,WNW,286,0.0,3.0,74,0.00,,,0.04,Wunderground v.1.15,2013-02-27 23:43:00,
2013-02-27 18:48:00,44.1,36.0,29.68,WNW,286,2.0,4.0,73,0.00,,,0.04,Wunderground v.1.15,2013-02-27 23:48:00,
2013-02-27 18:53:00,43.8,36.0,29.68,WNW,286,1.0,4.0,74,0.00,,,0.04,Wunderground v.1.15,2013-02-27 23:53:00,
2013-02-27 18:58:00,43.7,36.0,29.69,WNW,286,0.0,4.0,74,0.00,,,0.04,Wunderground v.1.15,2013-02-27 23:58:00,
2013-02-27 19:03:00,43.5,35.8,29.68,WNW,286,3.0,4.0,74,0.00,,,0.04,Wunderground v.1.15,2013-02-28 00:03:00,
2013-02-27 19:08:00,43.4,36.0,29.69,WNW,286,2.0,6.0,75,0.00,,,0.04,Wunderground v.1.15,2013-02-28 00:08:00,
2013-02-27 19:13:00,43.3,35.9,29.69,WNW,286,0.0,1.0,75,0.00,,,0.04,Wunderground v.1.15,2013-02-28 00:13:00,
2013-02-27 19:18:00,43.2,35.8,29.69,WNW,286,0.0,2.0,75,0.00,,,0.04,Wunderground v.1.15,2013-02-28 00:18:00,
2013-02-27 19:23:00,43.2,35.8,29.68,WNW,286,0.0,4.0,75,0.00,,,0.04,Wunderground v.1.15,2013-02-28 00:23:00,
2013-02-27 19:28:00,43.1,35.7,29.68,WNW,286,0.0,5.0,75,0.00,,,0.04,Wunderground v.1.15,2013-02-28 00:28:00,
2013-02-27 19:33:00,43.0,35.6,29.68,WNW,286,1.0,4.0,75,0.00,,,0.04,Wunderground v.1.15,2013-02-28 00:33:00,
2013-02-27 19:38:00,43.0,35.6,29.69,WNW,286,0.0,4.0,75,0.00,,,0.04,Wunderground v.1.15,2013-02-28 00:38:00,
2013-02-27 19:43:00,43.0,36.0,29.69,WNW,286,0.0,2.0,76,0.00,,,0.04,Wunderground v.1.15,2013-02-28 00:43:00,
2013-02-27 19:48:00,42.9,35.5,29.69,WNW,286,2.0,2.0,75,0.00,,,0.04,Wunderground v.1.15,2013-02-28 00:48:00,
2013-02-27 19:53:00,43.0,35.6,29.69,WNW,286,0.0,1.0,75,0.00,,,0.04,Wunderground v.1.15,2013-02-28 00:53:00,
2013-02-27 19:58:00,42.9,35.5,29.69,WNW,286,0.0,1.0,75,0.00,,,0.04,Wunderground v.1.15,2013-02-28 00:58:00,
2013-02-27 20:03:00,42.9,35.9,29.69,WNW,286,0.0,0.0,76,0.00,,,0.04,Wunderground v.1.15,2013-02-28 01:03:00,
2013-02-27 20:08:00,42.9,35.5,29.69,WNW,286,0.0,3.0,75,0.00,,,0.04,Wunderground v.1.15,2013-02-28 01:08:00,
2013-02-27 20:13:00,42.9,35.5,29.69,WNW,286,0.0,4.0,75,0.00,,,0.04,Wunderground v.1.15,2013-02-28 01:13:00,
2013-02-27 20:18:00,42.9,35.5,29.69,WNW,286,0.0,4.0,75,0.00,,,0.04,Wunderground v.1.15,2013-02-28 01:18:00,
2013-02-27 20:23:00,43.0,36.0,29.69,WNW,286,0.0,2.0,76,0.00,,,0.04,Wunderground v.1.15,2013-02-28 01:23:00,
2013-02-27 20:28:00,43.0,35.6,29.69,WNW,286,0.0,2.0,75,0.00,,,0.04,Wunderground v.1.15,2013-02-28 01:28:00,
2013-02-27 20:33:00,42.9,35.5,29.69,WNW,286,0.0,0.0,75,0.00,,,0.04,Wunderground v.1.15,2013-02-28 01:33:00,
2013-02-27 20:38:00,42.8,35.8,29.69,WNW,286,0.0,2.0,76,0.00,,,0.04,Wunderground v.1.15,2013-02-28 01:38:00,
2013-02-27 20:43:00,42.7,36.0,29.69,WNW,286,0.0,0.0,77,0.00,,,0.04,Wunderground v.1.15,2013-02-28 01:43:00,
2013-02-27 20:48:00,42.6,35.6,29.69,WNW,286,0.0,2.0,76,0.00,,,0.04,Wunderground v.1.15,2013-02-28 01:48:00,
2013-02-27 20:53:00,42.6,35.9,29.69,WNW,286,1.0,6.0,77,0.00,,,0.04,Wunderground v.1.15,2013-02-28 01:53:00,
2013-02-27 20:58:00,42.5,35.5,29.69,WNW,286,0.0,6.0,76,0.00,,,0.04,Wunderground v.1.15,2013-02-28 01:58:00,
2013-02-27 21:03:00,42.5,36.1,29.68,WNW,286,0.0,4.0,78,0.00,,,0.04,Wunderground v.1.15,2013-02-28 02:03:00,
2013-02-27 21:08:00,42.4,36.0,29.68,WNW,286,0.0,4.0,78,0.00,,,0.04,Wunderground v.1.15,2013-02-28 02:08:00,
2013-02-27 21:13:00,42.3,35.9,29.68,WNW,286,0.0,0.0,78,0.00,,,0.04,Wunderground v.1.15,2013-02-28 02:13:00,
2013-02-27 21:18:00,42.3,35.3,29.68,WNW,286,0.0,2.0,76,0.00,,,0.04,Wunderground v.1.15,2013-02-28 02:18:00,
2013-02-27 21:23:00,42.3,35.6,29.68,WNW,286,0.0,0.0,77,0.00,,,0.04,Wunderground v.1.15,2013-02-28 02:23:00,
2013-02-27 21:28:00,42.3,35.9,29.67,WNW,286,0.0,1.0,78,0.00,,,0.04,Wunderground v.1.15,2013-02-28 02:28:00,
2013-02-27 21:33:00,42.3,35.9,29.67,WNW,286,0.0,0.0,78,0.00,,,0.04,Wunderground v.1.15,2013-02-28 02:33:00,
2013-02-27 21:38:00,42.2,35.8,29.67,WNW,286,0.0,0.0,78,0.00,,,0.04,Wunderground v.1.15,2013-02-28 02:38:00,
2013-02-27 21:43:00,42.0,35.6,29.67,WNW,286,0.0,0.0,78,0.00,,,0.04,Wunderground v.1.15,2013-02-28 02:43:00,
2013-02-27 21:48:00,41.8,35.8,29.67,WNW,286,0.0,0.0,79,0.00,,,0.04,Wunderground v.1.15,2013-02-28 02:48:00,
2013-02-27 21:53:00,41.6,35.9,29.67,WNW,286,0.0,0.0,80,0.00,,,0.04,Wunderground v.1.15,2013-02-28 02:53:00,
2013-02-27 21:58:00,41.5,36.1,29.67,WNW,286,0.0,0.0,81,0.00,,,0.04,Wunderground v.1.15,2013-02-28 02:58:00,
2013-02-27 22:03:00,41.2,35.8,29.66,WNW,286,0.0,0.0,81,0.00,,,0.04,Wunderground v.1.15,2013-02-28 03:03:00,
2013-02-27 22:08:00,41.0,35.6,29.66,WNW,286,0.0,0.0,81,0.00,,,0.04,Wunderground v.1.15,2013-02-28 03:08:00,
2013-02-27 22:13:00,40.9,35.8,29.66,WNW,286,0.0,0.0,82,0.00,,,0.04,Wunderground v.1.15,2013-02-28 03:13:00,
2013-02-27 22:18:00,40.8,36.0,29.66,WNW,286,0.0,0.0,83,0.00,,,0.04,Wunderground v.1.15,2013-02-28 03:18:00,
2013-02-27 22:23:00,40.7,35.9,29.66,WNW,286,0.0,0.0,83,0.00,,,0.04,Wunderground v.1.15,2013-02-28 03:23:00,
2013-02-27 22:28:00,40.5,36.0,29.65,WNW,286,0.0,0.0,84,0.00,,,0.04,Wunderground v.1.15,2013-02-28 03:28:00,
2013-02-27 22:33:00,40.3,35.8,29.66,WNW,286,0.0,0.0,84,0.00,,,0.04,Wunderground v.1.15,2013-02-28 03:33:00,
2013-02-27 22:38:00,40.2,36.1,29.66,WNW,286,0.0,0.0,85,0.00,,,0.04,Wunderground v.1.15,2013-02-28 03:38:00,
2013-02-27 22:43:00,40.0,35.9,29.65,WNW,286,0.0,0.0,85,0.00,,,0.04,Wunderground v.1.15,2013-02-28 03:43:00,
2013-02-27 22:48:00,39.8,35.7,29.65,WNW,286,0.0,0.0,85,0.00,,,0.04,Wunderground v.1.15,2013-02-28 03:48:00,
2013-02-27 22:53:00,39.7,35.6,29.65,WNW,286,0.0,0.0,85,0.00,,,0.04,Wunderground v.1.15,2013-02-28 03:53:00,
2013-02-27 22:58:00,39.5,35.4,29.65,WNW,286,0.0,0.0,85,0.00,,,0.04,Wunderground v.1.15,2013-02-28 03:58:00,
2013-02-27 23:03:00,39.3,35.5,29.65,WNW,286,0.0,0.0,86,0.00,,,0.04,Wunderground v.1.15,2013-02-28 04:03:00,
2013-02-27 23:08:00,39.2,35.4,29.65,WNW,286,0.0,0.0,86,0.00,,,0.04,Wunderground v.1.15,2013-02-28 04:08:00,
2013-02-27 23:13:00,39.1,35.3,29.65,WNW,286,0.0,0.0,86,0.00,,,0.04,Wunderground v.1.15,2013-02-28 04:13:00,
2013-02-27 23:18:00,39.1,35.3,29.65,WNW,286,0.0,0.0,86,0.00,,,0.04,Wunderground v.1.15,2013-02-28 04:18:00,
2013-02-27 23:23:00,39.1,35.3,29.65,WNW,286,0.0,0.0,86,0.00,,,0.04,Wunderground v.1.15,2013-02-28 04:23:00,
2013-02-27 23:28:00,38.9,35.1,29.65,WNW,286,0.0,0.0,86,0.00,,,0.04,Wunderground v.1.15,2013-02-28 04:28:00,
2013-02-27 23:33:00,38.9,35.4,29.65,WNW,286,0.0,0.0,87,0.00,,,0.04,Wunderground v.1.15,2013-02-28 04:33:00,
2013-02-27 23:38:00,38.9,35.4,29.64,WNW,286,0.0,0.0,87,0.00,,,0.04,Wunderground v.1.15,2013-02-28 04:38:00,
2013-02-27 23:43:00,38.9,35.4,29.65,WNW,286,0.0,0.0,87,0.00,,,0.04,Wunderground v.1.15,2013-02-28 04:43:00,
2013-02-27 23:48:00,38.9,35.1,29.64,WNW,286,0.0,0.0,86,0.00,,,0.04,Wunderground v.1.15,2013-02-28 04:48:00,
2013-02-27 23:53:00,38.9,35.1,29.64,WNW,286,0.0,0.0,86,0.00,,,0.04,Wunderground v.1.15,2013-02-28 04:53:00,
2013-02-27 23:58:00,38.9,35.4,29.64,WNW,286,0.0,0.0,87,0.00,,,0.04,Wunderground v.1.15,2013-02-28 04:58:00,